Time;durP1;ratioP1;P1;durP2;ratioP2;P2;SDS_P1;SDS_P2;PMS_P1;PMS_P2;Temp;Humidity;BMP_temperature;BMP_pressure;BME280_temperature;BME280_humidity;BME280_pressure;Samples;Min_cycle;Max_cycle;Signal;HPM_P1;HPM_P2
2022/05/26 00:01:56;;;;;;;0.50;0.50;;;14.80;99.90;14.30;101648.00;;;;5138028;27;20661;-65
2022/05/26 00:04:22;;;;;;;3.27;1.27;;;14.70;99.90;14.20;101666.00;;;;5156160;27;20193;-66
2022/05/26 00:06:47;;;;;;;3.00;1.13;;;14.70;99.90;14.70;101655.00;;;;5137916;27;20182;-65
2022/05/26 00:09:13;;;;;;;0.30;0.30;;;14.90;99.90;14.40;101659.00;;;;5120922;27;20195;-65
2022/05/26 00:11:39;;;;;;;0.50;0.50;;;14.70;99.90;14.60;101660.00;;;;5156127;27;20620;-65
2022/05/26 00:14:09;;;;;;;0.87;0.73;;;14.90;99.90;14.60;101650.00;;;;5156268;27;20201;-65
2022/05/26 00:16:44;;;;;;;1.27;1.13;;;15.00;99.90;14.40;101657.00;;;;5156147;27;20189;-66
2022/05/26 00:19:12;;;;;;;5.73;0.97;;;14.90;99.90;14.70;101647.00;;;;5138303;27;20189;-65
2022/05/26 00:21:39;;;;;;;0.80;0.80;;;14.80;99.90;14.70;101651.00;;;;5120446;27;20205;-65
2022/05/26 00:24:06;;;;;;;0.30;0.30;;;14.90;99.90;14.40;101649.00;;;;5137995;27;20234;-65
2022/05/26 00:26:32;;;;;;;2.40;1.00;;;14.80;99.90;14.30;101651.00;;;;5155701;27;20205;-65
2022/05/26 00:28:58;;;;;;;1.97;1.20;;;14.70;99.90;14.20;101660.00;;;;5137981;27;20197;-65
2022/05/26 00:31:24;;;;;;;1.13;0.50;;;14.70;99.90;14.20;101664.00;;;;5137374;27;20205;-65
2022/05/26 00:33:50;;;;;;;1.20;1.10;;;14.60;99.90;14.10;101663.00;;;;5155838;27;20190;-65
2022/05/26 00:36:17;;;;;;;0.43;0.43;;;14.50;99.90;14.20;101651.00;;;;5155826;27;20201;-66
2022/05/26 00:38:43;;;;;;;5.97;1.30;;;14.60;99.90;14.60;101658.00;;;;5155855;27;20200;-65
2022/05/26 00:41:14;;;;;;;0.47;0.47;;;14.70;99.90;14.30;101633.00;;;;5137151;27;20189;-65
2022/05/26 00:43:44;;;;;;;1.70;1.07;;;14.70;99.90;14.40;101652.00;;;;5155653;27;20189;-65
2022/05/26 00:46:37;;;;;;;3.83;2.73;;;14.60;99.90;14.10;101628.00;;;;5155901;27;20191;-66
2022/05/26 00:49:04;;;;;;;0.57;0.57;;;14.60;99.90;14.30;101658.00;;;;5137667;27;20238;-65
2022/05/26 00:51:36;;;;;;;0.80;0.80;;;14.60;99.90;14.60;101638.00;;;;5155584;27;20214;-65
2022/05/26 00:54:09;;;;;;;2.00;0.73;;;14.80;99.90;14.40;101669.00;;;;5136961;27;20201;-65
2022/05/26 00:56:48;;;;;;;4.53;1.97;;;14.70;99.90;14.10;101668.00;;;;5136377;27;20189;-65
2022/05/26 00:59:31;;;;;;;0.60;0.60;;;14.60;99.90;14.10;101665.00;;;;5155662;27;20317;-65
2022/05/26 01:01:58;;;;;;;6.60;1.70;;;14.60;99.90;14.30;101673.00;;;;5155440;27;20578;-66
2022/05/26 01:04:30;;;;;;;0.90;0.90;;;14.70;99.90;14.40;101670.00;;;;5136972;27;20204;-66
2022/05/26 01:07:26;;;;;;;0.60;0.60;;;14.70;99.90;14.30;101675.00;;;;5155187;27;20187;-66
2022/05/26 01:09:52;;;;;;;0.53;0.53;;;14.60;99.90;14.60;101660.00;;;;5125831;27;20288;-66
2022/05/26 01:12:18;;;;;;;0.30;0.30;;;14.80;99.90;14.60;101664.00;;;;5136698;27;20231;-66
2022/05/26 01:14:57;;;;;;;0.80;0.80;;;14.80;99.90;14.50;101673.00;;;;5155360;27;20693;-65
2022/05/26 01:18:05;;;;;;;4.13;1.63;;;14.80;99.90;14.40;101670.00;;;;5136636;27;20204;-65
2022/05/26 01:20:58;;;;;;;0.50;0.50;;;14.80;99.90;14.20;101676.00;;;;5155397;27;20193;-65
2022/05/26 01:24:06;;;;;;;4.77;1.17;;;14.80;99.90;14.10;101676.00;;;;5155239;27;20189;-66
2022/05/26 01:26:57;;;;;;;0.73;0.73;;;14.60;99.90;14.20;101680.00;;;;5136626;27;20192;-66
2022/05/26 01:30:06;;;;;;;4.70;2.00;;;14.50;99.90;14.40;101682.00;;;;5155286;27;20237;-65
2022/05/26 01:32:49;;;;;;;13.33;1.27;;;14.60;99.90;14.20;101679.00;;;;5136370;27;20241;-65
2022/05/26 01:35:56;;;;;;;1.60;1.43;;;14.60;99.90;14.20;101685.00;;;;5136573;27;20282;-65
2022/05/26 01:39:06;;;;;;;9.83;2.23;;;14.70;99.90;14.50;101692.00;;;;5122774;27;20263;-65
2022/05/26 01:42:02;;;;;;;8.37;2.23;;;14.80;99.90;14.40;101696.00;;;;5136503;27;20233;-66
2022/05/26 01:45:07;;;;;;;0.37;0.37;;;14.80;99.90;14.30;101693.00;;;;5155128;27;20209;-66
2022/05/26 01:48:00;;;;;;;0.40;0.40;;;14.70;99.90;14.20;101699.00;;;;5136240;27;20318;-65
2022/05/26 01:50:38;;;;;;;0.90;0.90;;;14.60;99.90;14.10;101677.00;;;;5123471;27;20605;-66
2022/05/26 01:53:24;;;;;;;2.50;1.57;;;14.60;99.90;14.30;101691.00;;;;5154339;27;20210;-65
2022/05/26 01:56:24;;;;;;;17.47;1.27;;;14.60;99.90;14.10;101717.00;;;;5154523;27;20185;-66
2022/05/26 01:58:58;;;;;;;1.50;1.40;;;14.50;99.90;13.90;101710.00;;;;5154677;27;20646;-65
2022/05/26 02:01:29;;;;;;;3.77;2.17;;;14.40;99.90;14.00;101711.00;;;;5154658;27;20193;-65
2022/05/26 02:03:57;;;;;;;2.17;1.50;;;14.40;99.90;14.10;101718.00;;;;5136106;27;20714;-65
2022/05/26 02:06:50;;;;;;;3.50;0.80;;;14.40;99.90;13.90;101721.00;;;;5135600;27;20653;-65
2022/05/26 02:09:29;;;;;;;1.40;1.30;;;14.30;99.90;14.10;101721.00;;;;5135961;27;20194;-65
2022/05/26 02:12:09;;;;;;;2.10;1.30;;;14.40;99.90;14.00;101719.00;;;;5136010;27;20299;-65
2022/05/26 02:14:52;;;;;;;1.60;0.87;;;14.40;99.90;14.00;101719.00;;;;5136180;27;20651;-65
2022/05/26 02:17:40;;;;;;;1.70;1.17;;;14.30;99.90;13.90;101714.00;;;;5135801;27;20585;-65
2022/05/26 02:20:43;;;;;;;1.37;1.27;;;14.30;99.90;14.00;101722.00;;;;5154490;27;20181;-65
2022/05/26 02:23:36;;;;;;;0.30;0.30;;;14.30;99.90;14.00;101720.00;;;;5084005;27;20210;-66
2022/05/26 02:26:04;;;;;;;0.30;0.30;;;14.30;99.90;14.20;101719.00;;;;5118649;27;20539;-65
2022/05/26 02:29:51;;;;;;;1.43;1.13;;;14.40;99.90;14.00;101729.00;;;;5135839;27;20638;-65
2022/05/26 02:31:24;;;;;;;3.10;1.23;;;14.40;99.90;14.20;101727.00;;;;5138319;27;20225;-65
2022/05/26 02:33:56;;;;;;;3.23;1.37;;;14.40;99.90;14.30;101738.00;;;;5135485;27;20193;-65
2022/05/26 02:36:24;;;;;;;3.53;1.43;;;14.50;99.90;13.90;101736.00;;;;5153751;27;20691;-66
2022/05/26 02:38:51;;;;;;;0.50;0.50;;;14.30;99.90;13.90;101738.00;;;;5135682;27;20306;-65
2022/05/26 02:41:17;;;;;;;0.40;0.40;;;14.30;99.90;14.10;101744.00;;;;5135725;27;20554;-65
2022/05/26 02:43:42;;;;;;;0.87;0.87;;;14.30;99.90;14.20;101706.00;;;;5135572;27;20190;-65
2022/05/26 02:46:35;;;;;;;0.70;0.43;;;14.40;99.90;13.90;101747.00;;;;5154128;27;20188;-66
2022/05/26 02:49:48;;;;;;;2.30;1.10;;;14.20;99.90;13.90;101750.00;;;;5153667;27;20197;-65
2022/05/26 02:52:27;;;;;;;0.73;0.73;;;14.20;99.90;13.70;101741.00;;;;5153757;27;20286;-66
2022/05/26 02:55:22;;;;;;;0.50;0.50;;;14.10;99.90;14.00;101752.00;;;;5135303;27;20193;-65
2022/05/26 02:58:11;;;;;;;1.67;1.57;;;14.10;99.90;13.70;101748.00;;;;5135816;27;20189;-65
2022/05/26 03:00:52;;;;;;;4.40;1.97;;;14.10;99.90;13.80;101718.00;;;;5153852;27;20718;-65
2022/05/26 03:03:50;;;;;;;0.33;0.33;;;14.00;99.90;13.50;101758.00;;;;5153668;27;20197;-65
2022/05/26 03:06:36;;;;;;;0.60;0.60;;;14.00;99.90;13.60;101755.00;;;;5134915;27;20189;-65
2022/05/26 03:09:05;;;;;;;1.47;1.37;;;13.90;99.90;14.20;101754.00;;;;5153572;27;20196;-65
2022/05/26 03:11:49;;;;;;;1.80;1.57;;;14.20;99.90;13.80;101745.00;;;;5135072;27;20201;-65
2022/05/26 03:14:17;;;;;;;6.67;1.30;;;14.20;99.90;13.50;101760.00;;;;5153479;27;20197;-65
2022/05/26 03:16:43;;;;;;;0.30;0.30;;;14.10;99.90;13.70;101757.00;;;;5153525;27;20555;-66
2022/05/26 03:19:10;;;;;;;1.97;1.70;;;14.00;99.90;13.70;101734.00;;;;5137047;27;20194;-65
2022/05/26 03:21:37;;;;;;;5.97;1.80;;;14.00;99.90;14.00;101759.00;;;;5138881;27;20184;-65
2022/05/26 03:24:03;;;;;;;0.93;0.77;;;14.10;99.90;13.60;101735.00;;;;5138593;27;20193;-65
2022/05/26 03:26:29;;;;;;;8.20;2.70;;;14.00;99.90;13.90;101727.00;;;;5138476;27;20706;-65
2022/05/26 03:28:55;;;;;;;5.03;2.50;;;14.00;99.90;13.60;101766.00;;;;5156950;27;20187;-65
2022/05/26 03:31:22;;;;;;;7.37;2.40;;;14.00;99.90;14.20;101770.00;;;;5138509;27;20625;-65
2022/05/26 03:42:14;;;;;;;1.57;0.87;;;13.90;99.90;13.50;101770.00;;;;5136010;28;20203;-66
2022/05/26 03:44:40;;;;;;;2.60;1.17;;;13.80;99.90;13.60;101766.00;;;;5117719;28;20593;-65
2022/05/26 03:47:06;;;;;;;1.10;0.90;;;13.90;99.90;13.90;101778.00;;;;5136019;28;20243;-66
2022/05/26 03:49:33;;;;;;;2.73;1.73;;;14.00;99.90;13.80;101775.00;;;;5117350;27;20191;-65
2022/05/26 03:51:59;;;;;;;6.13;1.67;;;14.00;99.90;13.60;101776.00;;;;5135953;28;20236;-65
2022/05/26 03:54:25;;;;;;;0.50;0.50;;;14.00;99.90;13.70;101779.00;;;;5117519;28;20190;-65
2022/05/26 03:56:51;;;;;;;3.83;1.63;;;14.00;99.90;13.80;101785.00;;;;5135966;28;20300;-65
2022/05/26 03:59:17;;;;;;;0.53;0.53;;;13.90;99.90;13.60;101784.00;;;;5117565;28;20965;-65
2022/05/26 04:01:43;;;;;;;0.70;0.70;;;13.90;99.90;13.40;101788.00;;;;5135605;27;20552;-66
2022/05/26 04:04:09;;;;;;;2.97;1.77;;;13.80;99.90;13.40;101791.00;;;;5116921;28;20253;-65
2022/05/26 04:06:36;;;;;;;0.57;0.50;;;13.70;99.90;13.60;101785.00;;;;5135591;28;20181;-65
2022/05/26 04:09:03;;;;;;;1.90;0.90;;;13.80;99.90;13.50;101796.00;;;;5135740;28;20197;-65
2022/05/26 04:11:29;;;;;;;3.27;1.70;;;13.80;99.90;13.40;101796.00;;;;5117426;28;20603;-65
2022/05/26 04:13:55;;;;;;;0.90;0.90;;;13.70;99.90;13.50;101771.00;;;;5135676;28;20548;-65
2022/05/26 04:16:22;;;;;;;0.77;0.60;;;13.70;99.90;13.20;101797.00;;;;5116980;28;20189;-66
2022/05/26 04:18:51;;;;;;;6.63;1.50;;;13.60;99.90;13.50;101805.00;;;;5135344;28;20191;-65
2022/05/26 04:21:17;;;;;;;0.53;0.53;;;13.70;99.90;13.50;101806.00;;;;5117113;28;20201;-66
2022/05/26 04:23:42;;;;;;;2.73;1.40;;;13.70;99.90;13.30;101783.00;;;;5117574;28;20592;-66
2022/05/26 04:26:10;;;;;;;1.20;1.17;;;13.70;99.90;13.50;101774.00;;;;5135165;28;20192;-65
2022/05/26 04:28:37;;;;;;;14.90;1.90;;;13.80;99.90;13.70;101800.00;;;;5135357;27;20593;-66
2022/05/26 04:31:06;;;;;;;2.97;1.47;;;13.80;99.90;13.70;101805.00;;;;5099297;28;20196;-65
2022/05/26 04:33:33;;;;;;;9.40;2.67;;;13.90;99.90;13.30;101813.00;;;;5117889;28;20225;-66
2022/05/26 04:36:03;;;;;;;0.47;0.47;;;13.70;99.90;13.40;101810.00;;;;5116894;28;20288;-66
2022/05/26 04:38:30;;;;;;;2.03;1.53;;;13.70;99.90;13.40;101817.00;;;;5135611;28;20185;-66
2022/05/26 04:41:01;;;;;;;19.30;3.17;;;13.80;99.90;13.50;101818.00;;;;5135395;28;20245;-65
2022/05/26 04:43:28;;;;;;;3.33;2.00;;;13.90;99.90;13.60;101822.00;;;;5116820;28;20199;-66
2022/05/26 04:45:53;;;;;;;10.57;2.73;;;13.90;99.90;13.60;101825.00;;;;5116534;28;20588;-66
2022/05/26 04:48:21;;;;;;;6.63;1.97;;;13.90;99.90;13.50;101834.00;;;;5116833;28;20193;-65
2022/05/26 04:50:52;;;;;;;0.80;0.80;;;13.90;99.90;14.10;101829.00;;;;5135009;28;20678;-65
2022/05/26 04:53:19;;;;;;;6.10;4.10;;;14.10;99.90;14.40;101835.00;;;;5134849;28;20205;-65
2022/05/26 04:55:46;;;;;;;1.07;1.07;;;14.50;99.90;13.90;101805.00;;;;5116604;28;20192;-65
2022/05/26 04:58:12;;;;;;;3.23;3.03;;;14.30;99.90;14.00;101828.00;;;;5116447;28;20197;-66
2022/05/26 05:00:38;;;;;;;2.10;2.00;;;14.40;99.90;14.60;101810.00;;;;5134611;28;20546;-65
2022/05/26 05:03:04;;;;;;;2.47;2.13;;;14.70;99.90;14.20;101813.00;;;;5116486;28;20184;-65
2022/05/26 05:05:30;;;;;;;1.43;1.37;;;14.70;99.90;14.00;101837.00;;;;5134946;28;20590;-65
2022/05/26 05:07:56;;;;;;;17.63;5.00;;;14.70;99.90;14.50;101837.00;;;;5116497;28;20187;-65
2022/05/26 05:10:22;;;;;;;1.40;1.30;;;14.80;99.90;15.20;101846.00;;;;5116628;28;20279;-65
2022/05/26 05:12:50;;;;;;;2.97;2.30;;;15.30;99.90;15.10;101847.00;;;;5134202;28;20576;-65
2022/05/26 05:15:23;;;;;;;3.80;0.90;;;15.40;99.90;14.90;101836.00;;;;5134260;27;20696;-65
2022/05/26 05:17:49;;;;;;;5.77;2.27;;;15.20;99.90;15.00;101845.00;;;;5116203;28;20517;-65
2022/05/26 05:20:15;;;;;;;13.90;2.33;;;15.30;99.90;15.40;101845.00;;;;5134434;28;20289;-66
2022/05/26 05:22:49;;;;;;;1.90;1.80;;;15.60;99.90;14.90;101823.00;;;;5134719;28;20606;-65
2022/05/26 05:25:21;;;;;;;16.87;2.63;;;15.60;99.90;14.60;101848.00;;;;5116038;28;20719;-65
2022/05/26 05:28:14;;;;;;;3.10;1.90;;;15.30;99.90;14.80;101845.00;;;;5099083;28;20194;-65
2022/05/26 05:31:05;;;;;;;2.97;2.67;;;15.30;99.90;16.40;101841.00;;;;5134262;28;20185;-66
2022/05/26 05:33:33;;;;;;;2.40;1.97;;;16.40;99.90;15.80;101839.00;;;;5134307;28;20194;-65
2022/05/26 05:36:10;;;;;;;2.47;1.33;;;16.50;99.90;14.40;101859.00;;;;5134228;28;20199;-65
2022/05/26 05:38:40;;;;;;;0.90;0.73;;;15.50;99.90;14.70;101863.00;;;;5115843;28;20196;-65
2022/05/26 05:41:09;;;;;;;6.03;2.13;;;15.40;99.90;15.40;101853.00;;;;5115543;28;20189;-66
2022/05/26 05:43:36;;;;;;;0.60;0.60;;;15.70;99.90;15.40;101850.00;;;;5115597;28;20195;-65
2022/05/26 05:46:02;;;;;;;1.40;1.40;;;15.90;99.90;16.10;101844.00;;;;5115695;28;20277;-67
2022/05/26 05:48:28;;;;;;;6.33;2.57;;;16.30;99.90;15.00;101863.00;;;;5115807;28;20204;-65
2022/05/26 05:50:54;;;;;;;1.60;1.20;;;15.90;99.90;15.40;101870.00;;;;5134245;28;20548;-65
2022/05/26 05:53:21;;;;;;;3.13;1.30;;;16.00;99.90;16.00;101872.00;;;;5134011;28;20214;-65
2022/05/26 05:55:47;;;;;;;2.30;1.47;;;16.40;99.90;15.90;101869.00;;;;5134082;28;20211;-65
2022/05/26 05:58:13;;;;;;;4.67;2.43;;;16.50;99.90;16.10;101849.00;;;;5133410;28;20189;-65
2022/05/26 06:00:41;;;;;;;1.57;1.47;;;16.70;99.90;16.40;101872.00;;;;5115694;27;20220;-66
2022/05/26 06:03:08;;;;;;;0.73;0.60;;;16.90;99.90;17.40;101873.00;;;;5133767;27;20597;-65
2022/05/26 06:05:34;;;;;;;1.70;1.10;;;17.80;99.90;15.50;101831.00;;;;5133903;28;20176;-65
2022/05/26 06:08:01;;;;;;;2.63;2.17;;;16.90;99.90;15.40;101882.00;;;;5115200;28;20275;-65
2022/05/26 06:10:29;;;;;;;3.77;2.03;;;16.30;99.90;15.90;101893.00;;;;5133946;28;20202;-65
2022/05/26 06:12:55;;;;;;;2.10;1.07;;;16.30;99.90;15.50;101891.00;;;;5097847;28;20583;-66
2022/05/26 06:15:21;;;;;;;2.20;1.10;;;16.10;99.90;16.00;101905.00;;;;5134262;28;20191;-65
2022/05/26 06:17:47;;;;;;;16.57;2.73;;;16.50;99.90;16.30;101896.00;;;;5133667;28;20194;-65
2022/05/26 06:20:14;;;;;;;0.30;0.30;;;16.60;99.90;16.70;101864.00;;;;5133722;28;20632;-65
2022/05/26 06:22:43;;;;;;;12.20;2.00;;;17.00;99.90;16.40;101884.00;;;;5115131;28;20220;-65
2022/05/26 06:25:10;;;;;;;2.63;1.25;;;17.00;99.90;17.10;101862.00;;;;5133628;28;20279;-65
2022/05/26 06:30:22;;;;;;;0.52;0.52;;;18.10;99.90;17.30;101882.00;;;;5133468;28;20355;-65
2022/05/26 06:38:26;;;;;;;5.97;2.45;;;18.70;99.90;17.90;101870.00;;;;5117751;28;20260;-66
2022/05/26 06:40:52;;;;;;;0.20;0.20;;;18.60;99.90;17.50;101879.00;;;;5133669;28;20216;-66
2022/05/26 06:43:19;;;;;;;0.85;0.82;;;18.30;99.90;17.40;101883.00;;;;5114528;28;20661;-65
2022/05/26 06:45:48;;;;;;;5.53;2.35;;;18.50;99.90;16.70;101855.00;;;;5133339;28;20194;-65
2022/05/26 06:48:14;;;;;;;0.20;0.20;;;17.60;99.90;16.80;101908.00;;;;5114770;28;20199;-65
2022/05/26 06:50:41;;;;;;;1.90;1.27;;;17.20;99.90;16.10;101904.00;;;;5133048;27;20190;-66
2022/05/26 06:53:07;;;;;;;0.37;0.37;;;17.10;99.90;16.80;101871.00;;;;5115428;28;20213;-66
2022/05/26 06:55:33;;;;;;;3.87;1.10;;;17.30;99.90;16.90;101905.00;;;;5137058;27;20184;-65
2022/05/26 06:57:59;;;;;;;2.13;0.73;;;17.30;99.90;16.90;101901.00;;;;5118050;28;20192;-65
2022/05/26 07:00:25;;;;;;;2.78;2.50;;;17.50;99.90;16.60;101906.00;;;;5136835;28;20182;-65
2022/05/26 07:02:54;;;;;;;0.80;0.80;;;17.50;99.90;16.20;101885.00;;;;5136684;28;20174;-66
2022/05/26 07:05:20;;;;;;;1.70;1.60;;;17.00;99.90;16.20;101917.00;;;;5136704;28;20193;-65
2022/05/26 07:07:46;;;;;;;6.27;2.20;;;17.00;99.90;16.80;101928.00;;;;5136744;28;20633;-65
2022/05/26 07:10:13;;;;;;;3.40;2.22;;;17.30;99.90;17.60;101915.00;;;;5136661;27;20281;-65
2022/05/26 07:12:40;;;;;;;10.20;2.92;;;17.80;99.90;17.90;101920.00;;;;5136179;28;20203;-65
2022/05/26 07:15:08;;;;;;;4.28;1.67;;;18.40;99.90;17.20;101906.00;;;;5118393;28;20203;-66
2022/05/26 07:17:34;;;;;;;2.05;1.92;;;18.10;99.90;16.30;101923.00;;;;5118194;28;20717;-65
2022/05/26 07:20:00;;;;;;;2.70;2.13;;;17.30;99.90;17.00;101937.00;;;;5100716;28;20208;-65
2022/05/26 07:22:30;;;;;;;1.08;1.00;;;17.20;99.90;16.90;101922.00;;;;5136943;28;20757;-65
2022/05/26 07:24:56;;;;;;;3.83;0.75;;;17.50;99.90;16.60;101901.00;;;;5136602;28;20178;-65
2022/05/26 07:27:22;;;;;;;2.10;1.90;;;17.40;99.90;17.60;101909.00;;;;5136113;28;20653;-66
2022/05/26 07:29:49;;;;;;;2.28;1.27;;;17.80;99.90;19.10;101905.00;;;;5101057;28;20226;-66
2022/05/26 07:32:14;;;;;;;1.63;1.23;;;19.20;99.90;18.00;101931.00;;;;5136068;28;20616;-65
2022/05/26 07:34:40;;;;;;;0.40;0.40;;;18.80;99.90;16.90;101929.00;;;;5136474;27;20187;-65
2022/05/26 07:42:36;;;;;;;0.80;0.80;;;17.20;99.90;19.70;101942.00;;;;5136189;27;20251;-66
2022/05/26 07:45:07;;;;;;;0.95;0.95;;;19.10;99.90;20.90;101947.00;;;;5117777;28;20197;-67
2022/05/26 07:47:33;;;;;;;2.92;1.17;;;20.60;99.90;21.70;101968.00;;;;5136349;28;20194;-66
2022/05/26 07:50:01;;;;;;;4.57;1.65;;;21.90;99.90;23.50;102004.00;;;;5135923;28;20200;-66
2022/05/26 07:52:27;;;;;;;2.60;2.47;;;23.00;99.90;24.30;102041.00;;;;5136010;28;20207;-66
2022/05/26 07:54:52;;;;;;;2.60;2.38;;;23.80;99.90;20.20;101972.00;;;;5135623;28;20270;-65
2022/05/26 07:57:25;;;;;;;2.55;1.42;;;21.90;99.90;18.20;101934.00;;;;5135641;28;20194;-65
2022/05/26 07:59:54;;;;;;;0.20;0.20;;;19.70;99.90;18.00;101910.00;;;;5117732;28;20271;-65
2022/05/26 08:02:20;;;;;;;0.38;0.38;;;19.10;99.90;18.00;101931.00;;;;5135776;28;20183;-65
2022/05/26 08:04:47;;;;;;;2.60;0.95;;;19.00;99.90;20.10;101969.00;;;;5135224;27;20394;-65
2022/05/26 08:07:14;;;;;;;1.52;0.35;;;20.10;99.90;19.50;101923.00;;;;5135823;28;20243;-65
2022/05/26 08:09:40;;;;;;;0.30;0.30;;;19.90;99.90;19.10;101947.00;;;;5135269;27;20236;-65
2022/05/26 08:12:12;;;;;;;3.55;2.42;;;19.70;99.90;22.00;101993.00;;;;5117443;28;20208;-65
2022/05/26 08:14:43;;;;;;;3.55;1.63;;;21.20;99.90;21.40;101990.00;;;;5117283;28;20178;-65
2022/05/26 08:17:14;;;;;;;1.10;0.60;;;22.00;99.90;21.60;102024.00;;;;5117341;28;20294;-65
2022/05/26 08:19:39;;;;;;;4.22;2.80;;;21.90;99.90;20.50;102006.00;;;;5135553;28;20182;-65
2022/05/26 08:22:05;;;;;;;8.65;2.20;;;21.10;99.90;18.80;101967.00;;;;5117325;28;20183;-65
2022/05/26 08:24:32;;;;;;;9.05;3.30;;;19.60;99.90;19.50;101974.00;;;;5117005;28;20195;-65
2022/05/26 08:27:15;;;;;;;0.45;0.45;;;19.80;99.90;17.90;101961.00;;;;5135348;28;20669;-65
2022/05/26 08:29:41;;;;;;;8.13;3.85;;;19.00;99.90;18.70;101977.00;;;;5117286;28;20642;-65
2022/05/26 08:32:08;;;;;;;6.57;4.30;;;18.90;99.90;18.90;101983.00;;;;5135062;28;20546;-64
2022/05/26 08:34:34;;;;;;;0.38;0.38;;;19.00;99.90;17.80;101942.00;;;;5117021;28;20240;-66
2022/05/26 08:36:59;;;;;;;0.28;0.28;;;18.40;99.90;19.10;101979.00;;;;5135074;28;20191;-64
2022/05/26 08:39:26;;;;;;;0.35;0.35;;;19.10;99.90;20.50;102011.00;;;;5135159;28;20184;-64
2022/05/26 08:41:53;;;;;;;1.27;1.23;;;20.20;99.90;19.60;101996.00;;;;5135127;28;20186;-64
2022/05/26 08:44:26;;;;;;;0.50;0.50;;;20.00;99.90;21.10;102023.00;;;;5135567;28;20188;-64
2022/05/26 08:47:01;;;;;;;0.77;0.75;;;20.80;99.90;21.60;102039.00;;;;5116459;28;20188;-65
2022/05/26 08:49:53;;;;;;;1.45;1.13;;;21.20;99.90;18.40;102011.00;;;;5117520;28;20191;-65
2022/05/26 08:53:01;;;;;;;0.20;0.20;;;20.10;99.90;19.00;102006.00;;;;5116239;28;20203;-65
2022/05/26 08:55:34;;;;;;;3.42;1.80;;;19.30;99.90;18.50;101996.00;;;;5116416;28;20549;-65
2022/05/26 08:58:09;;;;;;;0.20;0.20;;;18.90;99.90;19.80;101989.00;;;;5116513;28;20650;-65
2022/05/26 09:00:41;;;;;;;0.30;0.30;;;19.50;99.90;19.60;102023.00;;;;5134787;28;20191;-65
2022/05/26 09:03:34;;;;;;;0.55;0.40;;;20.00;99.90;18.90;102018.00;;;;5116727;28;20179;-65
2022/05/26 09:06:14;;;;;;;6.13;2.40;;;19.40;99.90;19.30;101995.00;;;;5134400;28;20256;-66
2022/05/26 09:14:20;;;;;;;0.10;0.10;;;19.40;99.90;18.90;102031.00;;;;5134591;28;20571;-65
2022/05/26 09:16:46;;;;;;;7.90;3.25;;;19.10;99.90;19.60;102039.00;;;;5133430;27;20698;-66
2022/05/26 09:19:19;;;;;;;9.57;2.03;;;19.60;99.90;18.00;102017.00;;;;5116256;28;20203;-65
2022/05/26 09:21:48;;;;;;;0.80;0.80;;;18.80;99.90;17.60;102015.00;;;;5115949;28;20204;-65
2022/05/26 09:24:17;;;;;;;4.33;3.40;;;18.50;99.90;17.60;102021.00;;;;5134546;28;20177;-66
2022/05/26 09:27:01;;;;;;;7.30;3.80;;;18.20;99.90;17.40;102020.00;;;;5134546;28;20196;-67
2022/05/26 09:29:35;;;;;;;0.73;0.73;;;18.00;99.90;17.20;102018.00;;;;5115967;28;20184;-66
2022/05/26 09:32:03;;;;;;;1.90;1.60;;;17.80;99.90;17.50;102022.00;;;;5134111;28;20208;-66
2022/05/26 09:34:32;;;;;;;5.77;1.73;;;18.00;99.90;17.90;102025.00;;;;5134475;28;20197;-66
2022/05/26 09:37:03;;;;;;;0.83;0.83;;;18.30;99.90;17.50;102023.00;;;;5115658;28;20666;-66
2022/05/26 09:39:34;;;;;;;3.50;2.70;;;18.20;99.90;17.20;102029.00;;;;5115821;28;20267;-66
2022/05/26 09:42:05;;;;;;;4.90;1.00;;;17.90;99.90;17.30;102022.00;;;;5116201;28;20628;-66
2022/05/26 09:44:46;;;;;;;1.10;1.10;;;17.90;99.90;17.30;102017.00;;;;5134264;28;20266;-65
2022/05/26 09:47:53;;;;;;;3.00;1.70;;;17.90;99.90;17.20;102019.00;;;;5134027;28;20195;-65
2022/05/26 09:50:35;;;;;;;5.37;2.50;;;17.80;99.90;17.40;102000.00;;;;5134183;28;20200;-65
2022/05/26 09:53:05;;;;;;;0.77;0.73;;;18.00;99.90;17.90;102026.00;;;;5133796;28;20196;-65
2022/05/26 09:55:42;;;;;;;0.93;0.93;;;18.30;99.90;18.00;101996.00;;;;5115820;28;20190;-65
2022/05/26 09:58:28;;;;;;;7.03;1.93;;;18.40;99.90;18.40;102032.00;;;;5115417;28;20190;-66
2022/05/26 10:01:00;;;;;;;3.67;1.63;;;19.10;99.90;18.00;102035.00;;;;5116119;28;20183;-66
2022/05/26 10:03:40;;;;;;;9.82;1.08;;;19.00;99.90;18.30;102036.00;;;;5115458;28;20731;-66
2022/05/26 10:06:35;;;;;;;0.60;0.60;;;18.80;99.90;18.40;102051.00;;;;5133399;28;20194;-66
2022/05/26 10:09:31;;;;;;;1.45;1.05;;;18.90;99.90;19.40;102069.00;;;;5115205;28;20198;-65
2022/05/26 10:12:15;;;;;;;1.60;1.50;;;19.40;99.90;18.60;102073.00;;;;5115637;28;20658;-65
2022/05/26 10:15:53;;;;;;;1.10;1.10;;;19.70;99.90;19.90;102055.00;;;;5133628;27;20202;-65
2022/05/26 10:19:08;;;;;;;0.10;0.10;;;19.80;99.90;21.20;102068.00;;;;5030405;28;20187;-65
2022/05/26 10:34:05;;;;;;;2.05;1.13;;;20.30;99.90;19.20;102118.00;;;;5192878;27;20494;-66
2022/05/26 10:37:14;;;;;;;1.95;0.80;;;19.80;99.90;18.80;102110.00;;;;5171810;27;20189;-65
2022/05/26 10:40:12;;;;;;;0.57;0.57;;;19.20;99.90;19.10;102065.00;;;;5152968;27;20268;-66
2022/05/26 10:42:54;;;;;;;1.83;1.05;;;19.20;99.90;19.70;102107.00;;;;5171632;27;20192;-65
2022/05/26 10:45:38;;;;;;;2.22;1.00;;;19.90;99.90;19.60;102134.00;;;;5153144;27;20260;-65
2022/05/26 10:48:32;;;;;;;3.75;0.30;;;20.20;99.90;19.00;102107.00;;;;5171156;27;20541;-65
2022/05/26 10:51:13;;;;;;;0.93;0.70;;;19.60;99.90;19.70;102084.00;;;;5140592;27;20208;-65
2022/05/26 10:54:00;;;;;;;0.95;0.95;;;19.60;99.90;19.20;102079.00;;;;5171454;27;20260;-65
2022/05/26 10:56:43;;;;;;;0.70;0.70;;;19.70;99.90;20.30;102086.00;;;;5171239;27;20212;-66
2022/05/26 10:59:18;;;;;;;0.55;0.52;;;20.10;99.90;20.30;102131.00;;;;5171484;27;20648;-65
2022/05/26 11:01:51;;;;;;;1.27;1.17;;;20.50;99.90;20.60;102129.00;;;;5171304;27;20259;-65
2022/05/26 11:04:27;;;;;;;2.65;0.82;;;20.80;99.90;20.30;102158.00;;;;5152314;27;20589;-65
2022/05/26 11:06:59;;;;;;;1.65;1.38;;;20.80;99.90;20.10;102166.00;;;;5171229;27;20670;-66
2022/05/26 11:09:46;;;;;;;2.42;1.10;;;20.40;99.90;20.70;102137.00;;;;5152701;27;20182;-66
2022/05/26 11:12:45;;;;;;;1.23;0.82;;;20.70;99.90;20.30;102157.00;;;;5171130;27;20720;-66
2022/05/26 11:18:20;;;;;;;0.47;0.35;;;20.30;99.90;21.20;102144.00;;;;5155062;27;20201;-66
2022/05/26 11:20:53;;;;;;;0.75;0.75;;;20.80;99.90;21.00;102148.00;;;;5152657;27;20178;-66
2022/05/26 11:23:21;;;;;;;2.97;1.25;;;21.30;99.90;20.60;102170.00;;;;5152912;27;20190;-66
2022/05/26 11:26:06;;;;;;;3.08;1.25;;;21.20;99.90;20.20;102160.00;;;;5171025;27;20310;-66
2022/05/26 11:28:49;;;;;;;3.72;1.08;;;20.90;99.90;20.10;102148.00;;;;5152274;27;20192;-66
2022/05/26 11:37:30;;;;;;;1.50;0.70;;;21.10;99.90;21.90;102173.00;;;;5154976;27;20229;-66
2022/05/26 11:40:06;;;;;;;1.00;0.90;;;21.80;99.90;20.10;102113.00;;;;5152040;27;20213;-66
2022/05/26 11:42:47;;;;;;;0.30;0.30;;;20.80;99.90;20.30;102119.00;;;;5150083;27;20192;-66
2022/05/26 11:45:29;;;;;;;0.63;0.63;;;20.40;99.90;20.60;102140.00;;;;5156762;27;20183;-66
2022/05/26 11:48:05;;;;;;;1.27;1.13;;;20.60;99.90;21.10;102173.00;;;;5138222;27;20182;-66
2022/05/26 11:50:56;;;;;;;1.85;1.17;;;21.00;99.90;20.60;102174.00;;;;5137974;27;20179;-67
2022/05/26 11:53:31;;;;;;;0.40;0.40;;;20.90;99.90;20.10;102156.00;;;;5156737;27;20186;-67
2022/05/26 11:56:05;;;;;;;1.00;0.85;;;20.40;99.90;20.70;102158.00;;;;5156471;27;20277;-67
2022/05/26 11:58:37;;;;;;;4.07;1.10;;;20.70;99.90;20.90;102171.00;;;;5156556;27;20186;-66
2022/05/26 12:01:34;;;;;;;5.57;0.40;;;20.90;99.90;19.90;102148.00;;;;5137390;27;20213;-66
2022/05/26 12:04:32;;;;;;;2.40;0.38;;;20.50;99.90;20.60;102140.00;;;;5138166;27;20183;-66
2022/05/26 12:07:34;;;;;;;0.32;0.32;;;20.50;99.90;21.50;102157.00;;;;5155798;27;20251;-66
2022/05/26 12:10:14;;;;;;;0.40;0.40;;;21.00;99.90;20.80;102150.00;;;;5156201;27;20182;-66